createdAt,value
2018-01-24T00:02:09.440Z,"    0"
2018-01-24T00:07:10.372Z,"    0"
2018-01-24T00:12:05.118Z,"    0"
2018-01-24T00:17:05.010Z,"    0"
2018-01-24T00:22:00.152Z,"    0"
2018-01-24T00:26:57.053Z,"    0"
2018-01-24T00:31:57.689Z,"    0"
2018-01-24T00:36:52.367Z,"    0"
2018-01-24T00:41:48.883Z,"    0"
2018-01-24T00:46:45.381Z,"    0"
2018-01-24T00:51:44.906Z,"    0"
2018-01-24T00:56:40.153Z,"    0"
2018-01-24T01:01:35.966Z,"    0"
2018-01-24T01:06:31.626Z,"    0"
2018-01-24T01:11:31.357Z,"    0"
2018-01-24T01:16:26.491Z,"    0"
2018-01-24T01:21:26.876Z,"    0"
2018-01-24T01:26:25.713Z,"    0"
2018-01-24T01:31:21.813Z,"    0"
2018-01-24T01:36:17.397Z,"    0"
2018-01-24T01:41:14.174Z,"    0"
2018-01-24T01:46:15.048Z,"    0"
2018-01-24T01:51:13.915Z,"    0"
2018-01-24T01:56:10.236Z,"    0"
2018-01-24T02:01:06.475Z,"    0"
2018-01-24T02:06:02.115Z,"    0"
2018-01-24T02:10:57.722Z,"    0"
2018-01-24T02:15:53.636Z,"    0"
2018-01-24T02:20:49.441Z,"    0"
2018-01-24T02:25:50.355Z,"    0"
2018-01-24T02:30:49.174Z,"    0"
2018-01-24T02:35:47.777Z,"    0"
2018-01-24T02:40:46.788Z,"    0"
2018-01-24T02:45:45.777Z,"    0"
2018-01-24T02:50:40.377Z,"    0"
2018-01-24T02:55:40.130Z,"    0"
2018-01-24T03:00:37.767Z,"    0"
2018-01-24T03:05:38.049Z,"    0"
2018-01-24T03:10:33.736Z,"    0"
2018-01-24T03:15:29.197Z,"    0"
2018-01-24T03:20:29.239Z,"    0"
2018-01-24T03:25:25.058Z,"    0"
2018-01-24T03:30:20.503Z,"    0"
2018-01-24T03:35:16.447Z,"    0"
2018-01-24T03:40:17.388Z,"    0"
2018-01-24T03:45:15.859Z,"    0"
2018-01-24T03:50:15.126Z,"    0"
2018-01-24T03:55:10.780Z,"    0"
2018-01-24T04:00:06.700Z,"    0"
2018-01-24T04:05:06.601Z,"    0"
2018-01-24T04:10:05.622Z,"    0"
2018-01-24T04:15:01.700Z,"    0"
2018-01-24T04:19:57.211Z,"    0"
2018-01-24T04:24:53.951Z,"    0"
2018-01-24T04:29:53.390Z,"    0"
2018-01-24T04:34:48.382Z,"    0"
2018-01-24T04:39:44.221Z,"    0"
2018-01-24T04:44:40.821Z,"    0"
2018-01-24T04:49:41.783Z,"    0"
2018-01-24T04:54:42.044Z,"    0"
2018-01-24T04:59:36.883Z,"    0"
2018-01-24T05:04:37.624Z,"    0"
2018-01-24T05:09:38.507Z,"    0"
2018-01-24T05:14:33.088Z,"    0"
2018-01-24T05:19:29.197Z,"    0"
2018-01-24T05:24:29.005Z,"    0"
2018-01-24T05:29:24.565Z,"    0"
2018-01-24T05:34:19.980Z,"    0"
2018-01-24T05:39:16.047Z,"    0"
2018-01-24T05:44:15.825Z,"    0"
2018-01-24T05:49:11.155Z,"    0"
2018-01-24T05:54:06.906Z,"    0"
2018-01-24T05:59:02.708Z,"    0"
2018-01-24T06:03:58.601Z,"    0"
2018-01-24T06:08:58.352Z,"    0"
2018-01-24T06:13:57.420Z,"    0"
2018-01-24T06:18:52.189Z,"    0"
2018-01-24T06:23:49.172Z,"    0"
2018-01-24T06:28:48.668Z,"    0"
2018-01-24T06:33:44.669Z,"    0"
2018-01-24T06:38:40.875Z,"    0"
2018-01-24T06:43:41.762Z,"    0"
2018-01-24T06:48:41.349Z,"    0"
2018-01-24T06:53:39.777Z,"    0"
2018-01-24T06:58:39.942Z,"   12"
2018-01-24T07:03:38.486Z,"   12"
2018-01-24T07:08:33.542Z,"   32"
2018-01-24T07:13:33.218Z,"   44"
2018-01-24T07:18:32.364Z,"   64"
2018-01-24T07:23:28.415Z,"  128"
2018-01-24T07:28:25.639Z,"  160"
2018-01-24T07:33:21.347Z,"  136"
2018-01-24T07:38:22.087Z,"  216"
2018-01-24T07:43:20.850Z,"  304"
2018-01-24T07:48:19.925Z,"  632"
2018-01-24T07:53:14.535Z,"  592"
2018-01-24T07:58:10.551Z,"  580"
2018-01-24T08:03:11.416Z,"  656"
2018-01-24T08:08:10.839Z,"  652"
2018-01-24T08:13:06.113Z," 1060"
2018-01-24T08:18:05.881Z," 1324"
2018-01-24T08:23:02.010Z," 1312"
2018-01-24T08:27:58.525Z," 1012"
2018-01-24T08:32:54.186Z," 1636"
2018-01-24T08:37:49.987Z," 1444"
2018-01-24T08:42:45.919Z," 1276"
2018-01-24T08:47:41.801Z," 1116"
2018-01-24T08:52:37.559Z," 2312"
2018-01-24T08:57:34.158Z," 2892"
2018-01-24T09:02:30.261Z," 4996"
2018-01-24T09:07:26.305Z," 5024"
2018-01-24T09:12:23.207Z," 4036"
2018-01-24T09:17:19.180Z," 3948"
2018-01-24T09:22:18.975Z," 4272"
2018-01-24T09:27:17.782Z," 3384"
2018-01-24T09:32:12.697Z," 4148"
2018-01-24T09:37:09.247Z," 5360"
2018-01-24T09:42:05.291Z," 4520"
2018-01-24T09:47:01.223Z," 2512"
2018-01-24T09:51:57.403Z," 2416"
2018-01-24T09:56:53.364Z," 3008"
2018-01-24T10:01:53.074Z," 4140"
2018-01-24T10:06:49.383Z," 4256"
2018-01-24T10:11:50.128Z," 4496"
2018-01-24T10:16:45.950Z," 5896"
2018-01-24T10:21:42.822Z," 5864"
2018-01-24T10:26:42.358Z," 5456"
2018-01-24T10:31:37.498Z," 5324"
2018-01-24T10:36:37.326Z," 5764"
2018-01-24T10:41:33.059Z," 6632"
2018-01-24T10:46:30.429Z," 6984"
2018-01-24T10:51:25.738Z," 7028"
2018-01-24T10:56:27.195Z," 8220"
2018-01-24T11:01:27.276Z,11016
2018-01-24T11:06:23.295Z," 8868"
2018-01-24T11:16:19.107Z," 9068"
2018-01-24T11:21:19.251Z,10132
2018-01-24T11:26:18.535Z," 9480"
2018-01-24T11:31:14.496Z," 9024"
2018-01-24T11:36:13.974Z," 8196"
2018-01-24T11:41:09.020Z," 8824"
2018-01-24T11:46:05.023Z," 5920"
2018-01-24T11:51:01.837Z," 6828"
2018-01-24T11:56:01.322Z," 5052"
2018-01-24T12:00:55.927Z," 4400"
2018-01-24T12:05:52.549Z," 4492"
2018-01-24T12:10:48.694Z," 2732"
2018-01-24T12:15:44.934Z," 2672"
2018-01-24T12:20:44.518Z," 2964"
2018-01-24T12:25:39.430Z," 1804"
2018-01-24T12:30:39.560Z," 2872"
2018-01-24T12:35:34.517Z," 3200"
2018-01-24T12:40:30.361Z," 2320"
2018-01-24T12:45:26.242Z," 2216"
2018-01-24T12:50:22.951Z," 2060"
2018-01-24T12:55:18.475Z," 1412"
2018-01-24T13:00:15.321Z," 1616"
2018-01-24T13:05:11.171Z," 1616"
2018-01-24T13:10:06.767Z," 1872"
2018-01-24T13:15:03.143Z," 1720"
2018-01-24T13:19:59.050Z," 1488"
2018-01-24T13:24:54.551Z," 1036"
2018-01-24T13:29:50.712Z,"  880"
2018-01-24T13:34:47.826Z,"  944"
2018-01-24T13:39:44.290Z,"  776"
2018-01-24T13:44:44.026Z,"  736"
2018-01-24T13:49:38.921Z,"  828"
2018-01-24T13:54:34.732Z,"  736"
2018-01-24T13:59:30.795Z,"  656"
2018-01-24T14:04:27.645Z,"  828"
2018-01-24T14:09:27.355Z,"  548"
2018-01-24T14:14:21.919Z,"  952"
2018-01-24T14:19:17.986Z,"  892"
2018-01-24T14:24:14.760Z,"  852"
2018-01-24T14:29:10.262Z,"  756"
2018-01-24T14:34:06.111Z," 1104"
2018-01-24T14:39:05.803Z," 1400"
2018-01-24T14:44:02.249Z," 1368"
2018-01-24T14:49:01.785Z,"  668"
2018-01-24T14:54:00.349Z,"  424"
2018-01-24T14:58:55.035Z,"  320"
2018-01-24T15:03:50.653Z,"  260"
2018-01-24T15:08:47.448Z,"  192"
2018-01-24T15:13:46.952Z,"  168"
2018-01-24T15:18:42.071Z,"  156"
2018-01-24T15:23:41.697Z,"  156"
2018-01-24T15:28:40.624Z,"  116"
2018-01-24T15:33:40.562Z,"  148"
2018-01-24T15:38:35.326Z,"  136"
2018-01-24T15:43:36.039Z,"   80"
2018-01-24T15:48:35.126Z,"   76"
2018-01-24T15:53:31.588Z,"   76"
2018-01-24T15:58:33.118Z,"   32"
2018-01-24T16:03:27.681Z,"   40"
2018-01-24T16:08:27.256Z,"   28"
2018-01-24T16:13:22.230Z,"   20"
2018-01-24T16:18:23.422Z,"    8"
2018-01-24T16:23:19.283Z,"    0"
2018-01-24T16:28:15.808Z,"    0"
2018-01-24T16:33:16.237Z,"    0"
2018-01-24T16:38:12.214Z,"    0"
2018-01-24T16:43:07.721Z,"    0"
2018-01-24T16:48:03.763Z,"    0"
2018-01-24T16:52:59.569Z,"    0"
2018-01-24T16:58:00.065Z,"    0"
2018-01-24T17:02:59.033Z,"    0"
2018-01-24T17:07:57.749Z,"    0"
2018-01-24T17:12:52.640Z,"    0"
2018-01-24T17:17:49.455Z,"    0"
2018-01-24T17:22:49.455Z,"    0"
2018-01-24T17:27:48.518Z,"    0"
2018-01-24T17:32:49.037Z,"    0"
2018-01-24T17:37:43.748Z,"    0"
2018-01-24T17:42:41.692Z,"    0"
2018-01-24T17:47:38.229Z,"    0"
2018-01-24T17:52:33.819Z,"    0"
2018-01-24T17:57:30.879Z,"    0"
2018-01-24T18:02:30.789Z,"    0"
2018-01-24T18:07:25.726Z,"    0"
2018-01-24T18:12:26.908Z,"    0"
2018-01-24T18:17:21.724Z,"    0"
2018-01-24T18:22:21.767Z,"    0"
2018-01-24T18:27:21.620Z,"    0"
2018-01-24T18:32:21.209Z,"    0"
2018-01-24T18:37:19.912Z,"    0"
2018-01-24T18:42:14.916Z,"    0"
2018-01-24T18:47:11.929Z,"    0"
2018-01-24T18:52:08.367Z,"    0"
2018-01-24T18:57:07.974Z,"    0"
2018-01-24T19:02:03.029Z,"    0"
2018-01-24T19:06:58.826Z,"    0"
2018-01-24T19:11:54.612Z,"    0"
2018-01-24T19:16:50.307Z,"    0"
2018-01-24T19:21:50.784Z,"    0"
2018-01-24T19:26:51.472Z,"    0"
2018-01-24T19:31:49.946Z,"    0"
2018-01-24T19:36:45.017Z,"    0"
2018-01-24T19:41:40.703Z,"    0"
2018-01-24T19:46:37.677Z,"    0"
2018-01-24T19:51:37.202Z,"    0"
2018-01-24T19:56:37.000Z,"    0"
2018-01-24T20:01:33.009Z,"    0"
2018-01-24T20:06:28.357Z,"    0"
2018-01-24T20:11:25.389Z,"    0"
2018-01-24T20:16:25.484Z,"    0"
2018-01-24T20:21:23.841Z,"    0"
2018-01-24T20:26:19.040Z,"    0"
2018-01-24T20:31:15.713Z,"    0"
2018-01-24T20:36:15.796Z,"    0"
2018-01-24T20:41:10.902Z,"    0"
2018-01-24T20:46:07.666Z,"    0"
2018-01-24T20:51:04.537Z,"    0"
2018-01-24T21:01:03.365Z,"    0"
2018-01-24T21:06:03.267Z,"    0"
2018-01-24T21:10:58.853Z,"    0"
2018-01-24T21:15:59.072Z,"    0"
2018-01-24T21:20:57.800Z,"    0"
2018-01-24T21:25:54.719Z,"    0"
2018-01-24T21:30:49.715Z,"    0"
2018-01-24T21:35:45.654Z,"    0"
2018-01-24T21:40:42.391Z,"    0"
2018-01-24T21:45:42.707Z,"    0"
2018-01-24T21:50:41.225Z,"    0"
2018-01-24T21:55:37.493Z,"    0"
2018-01-24T22:00:34.909Z,"    0"
2018-01-24T22:05:30.477Z,"    0"
2018-01-24T22:10:31.321Z,"    0"
2018-01-24T22:15:26.205Z,"    0"
2018-01-24T22:20:23.141Z,"    0"
2018-01-24T22:25:18.304Z,"    0"
2018-01-24T22:30:15.254Z,"    0"
2018-01-24T22:35:14.805Z,"    0"
2018-01-24T22:40:10.679Z,"    0"
2018-01-24T22:45:07.139Z,"    0"
2018-01-24T22:50:08.359Z,"    0"
2018-01-24T22:55:03.202Z,"    0"
2018-01-24T22:59:59.074Z,"    0"
2018-01-24T23:04:55.410Z,"    0"
2018-01-24T23:09:51.453Z,"    0"
2018-01-24T23:14:51.566Z,"    0"
2018-01-24T23:19:50.834Z,"    0"
2018-01-24T23:24:50.526Z,"    0"
2018-01-24T23:29:45.097Z,"    0"
2018-01-24T23:34:44.767Z,"    0"
2018-01-24T23:39:40.102Z,"    0"
2018-01-24T23:44:40.011Z,"    0"
2018-01-24T23:49:36.061Z,"    0"
2018-01-24T23:54:32.411Z,"    0"
2018-01-24T23:59:28.441Z,"    0"
